createdAt,value
2016-09-20T00:02:42.601Z,15.72
2016-09-20T00:12:46.405Z,15.73
2016-09-20T00:17:43.180Z,15.72
2016-09-20T00:22:42.176Z,15.43
2016-09-20T00:27:38.954Z,15.47
2016-09-20T00:32:35.614Z,15.54
2016-09-20T00:37:33.545Z,15.54
2016-09-20T00:42:30.603Z,15.57
2016-09-20T00:47:30.694Z,15.80
2016-09-20T00:52:30.527Z,15.77
2016-09-20T00:57:28.885Z,15.65
2016-09-20T01:02:25.372Z,15.73
2016-09-20T01:07:22.229Z,15.55
2016-09-20T01:12:21.043Z,15.64
2016-09-20T01:22:22.799Z,15.40
2016-09-20T01:27:19.967Z,15.44
2016-09-20T01:32:17.217Z,15.43
2016-09-20T01:37:17.052Z,15.43
2016-09-20T01:42:13.643Z,15.36
2016-09-20T01:47:13.172Z,15.33
2016-09-20T02:07:33.003Z,15.47
2016-09-20T02:12:34.338Z,15.43
2016-09-20T02:17:32.313Z,15.40
2016-09-20T02:22:28.907Z,15.46
2016-09-20T02:27:25.778Z,15.43
2016-09-20T02:37:28.293Z,15.31
2016-09-20T02:42:27.715Z,15.31
2016-09-20T02:47:26.263Z,15.28
2016-09-20T02:52:23.180Z,15.18
2016-09-20T02:57:21.581Z,15.24
2016-09-20T03:07:23.598Z,15.03
2016-09-20T03:12:21.681Z,15.06
2016-09-20T03:22:22.471Z,15.15
2016-09-20T03:27:20.591Z,15.31
2016-09-20T03:37:21.964Z,15.28
2016-09-20T03:42:19.027Z,15.27
2016-09-20T03:52:20.812Z,15.18
2016-09-20T03:57:18.301Z,15.29
2016-09-20T04:07:15.498Z,15.19
2016-09-20T04:12:12.277Z,15.25
2016-09-20T04:17:09.318Z,15.21
2016-09-20T04:22:06.237Z,15.17
2016-09-20T04:27:03.125Z,14.96
2016-09-20T04:32:00.330Z,14.91
2016-09-20T04:36:58.394Z,14.91
2016-09-20T04:51:58.879Z,15.00
2016-09-20T04:56:55.492Z,15.07
2016-09-20T05:01:52.962Z,14.88
2016-09-20T05:06:49.868Z,14.97
2016-09-20T05:11:47.898Z,15.02
2016-09-20T05:16:44.261Z,14.89
2016-09-20T05:21:41.343Z,15.00
2016-09-20T05:26:37.849Z,14.97
2016-09-20T05:31:34.748Z,15.18
2016-09-20T05:36:33.650Z,15.09
2016-09-20T05:41:30.057Z,15.17
2016-09-20T05:46:27.123Z,15.03
2016-09-20T05:51:23.622Z,14.89
2016-09-20T05:56:20.238Z,14.81
2016-09-20T06:01:17.243Z,14.79
2016-09-20T06:06:14.008Z,14.88
2016-09-20T06:11:10.657Z,14.88
2016-09-20T06:16:08.132Z,14.91
2016-09-20T06:21:05.019Z,15.06
2016-09-20T06:26:01.649Z,14.99
2016-09-20T06:31:06.752Z,15.02
2016-09-20T06:36:04.383Z,15.24
2016-09-20T06:46:02.968Z,15.19
2016-09-20T06:50:59.489Z,15.09
2016-09-20T06:55:56.222Z,15.11
2016-09-20T07:05:54.382Z,15.06
2016-09-20T07:10:52.860Z,15.17
2016-09-20T07:20:53.904Z,15.14
2016-09-20T07:25:51.233Z,15.39
2016-09-20T07:35:59.176Z,15.54
2016-09-20T07:46:00.558Z,15.39
2016-09-20T07:51:01.821Z,15.46
2016-09-20T08:01:04.446Z,15.49
2016-09-20T08:06:00.201Z,15.67
2016-09-20T08:10:59.301Z,15.92
2016-09-20T08:15:55.770Z,15.97
2016-09-20T08:20:52.883Z,15.91
2016-09-20T08:25:49.927Z,16.13
2016-09-20T08:30:47.675Z,16.36
2016-09-20T08:45:53.010Z,16.46
2016-09-20T08:50:49.824Z,16.43
2016-09-20T09:00:49.771Z,16.66
2016-09-20T09:05:46.782Z,16.75
2016-09-20T09:15:56.545Z,16.97
2016-09-20T09:20:54.900Z,17.14
2016-09-20T09:30:57.525Z,17.27
2016-09-20T09:35:53.875Z,17.57
2016-09-20T09:45:54.362Z,17.97
2016-09-20T09:55:54.282Z,18.47
2016-09-20T10:00:52.689Z,18.62
2016-09-20T10:05:49.581Z,18.70
2016-09-20T10:10:46.852Z,18.56
2016-09-20T10:15:46.249Z,18.60
2016-09-20T10:35:55.117Z,18.83
2016-09-20T10:40:52.031Z,18.53
2016-09-20T10:45:50.890Z,18.74
2016-09-20T10:55:52.789Z,19.67
2016-09-20T11:00:52.632Z,19.84
2016-09-20T11:05:50.178Z,20.55
2016-09-20T11:10:49.515Z,20.40
2016-09-20T11:20:52.216Z,20.00
2016-09-20T11:46:03.088Z,20.19
2016-09-20T11:50:59.956Z,20.51
2016-09-20T12:06:02.084Z,19.48
2016-09-20T12:16:05.757Z,19.45
2016-09-20T12:21:04.206Z,19.74
2016-09-20T12:26:00.681Z,20.02
2016-09-20T12:31:00.928Z,19.73
2016-09-20T12:35:57.294Z,19.52
2016-09-20T12:40:54.432Z,19.26
2016-09-20T12:50:54.739Z,19.64
2016-09-20T13:00:57.047Z,19.36
2016-09-20T13:05:54.233Z,19.26
2016-09-20T13:10:57.147Z,19.48
2016-09-20T13:20:59.353Z,19.63
2016-09-20T13:25:57.340Z,19.82
2016-09-20T13:36:01.301Z,20.31
2016-09-20T13:40:58.939Z,20.03
2016-09-20T13:45:55.844Z,19.91
2016-09-20T13:50:53.933Z,19.51
2016-09-20T13:55:51.469Z,19.12
2016-09-20T14:00:49.403Z,19.41
2016-09-20T14:05:46.564Z,19.52
2016-09-20T14:10:43.359Z,19.64
2016-09-20T14:15:43.257Z,19.69
2016-09-20T14:25:44.187Z,19.73
2016-09-20T14:30:45.201Z,19.64
2016-09-20T14:35:42.308Z,19.62
2016-09-20T14:40:42.350Z,19.18
2016-09-20T14:45:43.771Z,19.30
2016-09-20T14:55:51.266Z,19.04
2016-09-20T15:05:50.162Z,19.16
2016-09-20T15:10:46.410Z,19.30
2016-09-20T15:20:48.841Z,19.16
2016-09-20T15:25:46.182Z,19.14
2016-09-20T15:30:43.784Z,18.93
2016-09-20T15:35:43.819Z,18.95
2016-09-20T15:40:40.269Z,18.92
2016-09-20T15:45:38.467Z,18.83
2016-09-20T15:55:41.094Z,18.68
2016-09-20T16:00:37.763Z,18.73
2016-09-20T16:05:34.711Z,18.58
2016-09-20T16:10:32.920Z,18.44
2016-09-20T16:15:29.655Z,18.37
2016-09-20T16:25:26.761Z,18.38
2016-09-20T16:30:24.377Z,18.25
2016-09-20T16:35:21.948Z,18.20
2016-09-20T16:40:19.002Z,18.16
2016-09-20T16:45:16.866Z,18.03
2016-09-20T16:50:15.568Z,17.86
2016-09-20T16:55:11.922Z,17.87
2016-09-20T17:00:10.214Z,17.89
2016-09-20T17:05:07.698Z,17.83
2016-09-20T17:10:05.575Z,17.72
2016-09-20T17:15:05.712Z,17.52
2016-09-20T17:20:02.163Z,17.51
2016-09-20T17:25:00.047Z,17.63
2016-09-20T17:29:57.426Z,17.74
2016-09-20T17:34:54.591Z,17.78
2016-09-20T17:39:51.637Z,17.72
2016-09-20T17:44:51.384Z,17.72
2016-09-20T17:49:47.937Z,17.67
2016-09-20T17:54:48.376Z,17.74
2016-09-20T17:59:44.517Z,17.65
2016-09-20T18:04:42.135Z,17.59
2016-09-20T18:14:42.792Z,17.63
2016-09-20T18:19:40.331Z,17.59
2016-09-20T18:24:36.426Z,17.42
2016-09-20T18:29:32.878Z,17.29
2016-09-20T18:34:29.544Z,17.36
2016-09-20T18:39:26.095Z,17.26
2016-09-20T18:44:22.987Z,17.20
2016-09-20T18:49:20.002Z,17.06
2016-09-20T18:54:17.108Z,17.06
2016-09-20T18:59:15.194Z,17.04
2016-09-20T19:04:11.799Z,16.87
2016-09-20T19:09:08.774Z,16.93
2016-09-20T19:14:05.432Z,16.79
2016-09-20T19:19:02.077Z,16.71
2016-09-20T19:23:59.356Z,16.74
2016-09-20T19:28:55.500Z,16.71
2016-09-20T19:33:52.048Z,16.53
2016-09-20T19:38:53.129Z,16.57
2016-09-20T19:43:49.932Z,16.60
2016-09-20T19:48:46.752Z,16.56
2016-09-20T19:53:43.764Z,16.41
2016-09-20T19:58:40.390Z,16.35
2016-09-20T20:03:36.982Z,16.23
2016-09-20T20:08:34.890Z,16.17
2016-09-20T20:13:31.503Z,16.17
2016-09-20T20:18:27.992Z,16.09
2016-09-20T20:23:24.450Z,15.91
2016-09-20T20:28:20.647Z,15.77
2016-09-20T20:33:17.498Z,15.80
2016-09-20T20:38:14.140Z,15.79
2016-09-20T20:43:13.119Z,15.75
2016-09-20T20:48:09.296Z,15.59
2016-09-20T20:53:06.102Z,15.61
2016-09-20T20:58:02.778Z,15.54
2016-09-20T21:03:01.239Z,15.55
2016-09-20T21:08:00.861Z,15.43
2016-09-20T21:12:56.820Z,15.43
2016-09-20T21:17:53.969Z,15.29
2016-09-20T21:22:50.809Z,15.24
2016-09-20T21:27:47.206Z,15.11
2016-09-20T21:32:43.878Z,15.06
2016-09-20T21:37:40.944Z,14.96
2016-09-20T21:42:37.235Z,14.94
2016-09-20T21:47:39.457Z,14.96
2016-09-20T21:52:38.227Z,14.77
2016-09-20T21:57:34.324Z,14.55
2016-09-20T22:02:30.674Z,14.51
2016-09-20T22:07:27.061Z,14.47
2016-09-20T22:12:24.088Z,14.41
2016-09-20T22:17:20.949Z,14.29
2016-09-20T22:22:17.631Z,14.35
2016-09-20T22:27:14.289Z,14.17
2016-09-20T22:32:11.531Z,14.10
2016-09-20T22:37:09.206Z,13.96
2016-09-20T22:42:06.457Z,13.77
2016-09-20T22:47:03.222Z,13.85
2016-09-20T22:51:59.689Z,13.89
2016-09-20T22:56:56.433Z,13.74
2016-09-20T23:01:52.969Z,13.59
2016-09-20T23:06:49.561Z,13.57
2016-09-20T23:11:46.476Z,13.52
2016-09-20T23:16:43.072Z,13.31
2016-09-20T23:21:39.607Z,13.28
2016-09-20T23:26:37.056Z,13.35
2016-09-20T23:31:33.602Z,13.25
2016-09-20T23:36:31.479Z,13.22
2016-09-20T23:41:27.725Z,13.20
2016-09-20T23:46:24.238Z,13.18
2016-09-20T23:51:21.282Z,12.94
2016-09-20T23:56:18.758Z,12.82
